Time;durP1;ratioP1;P1;durP2;ratioP2;P2;SDS_P1;SDS_P2;PMS_P1;PMS_P2;Temp;Humidity;BMP_temperature;BMP_pressure;BME280_temperature;BME280_humidity;BME280_pressure;Samples;Min_cycle;Max_cycle;Signal;HPM_P1;HPM_P2
2024/01/02 00:01:40;;;;;;;2.50;2.30;;;4.70;53.70;;;;;;5027258;28;20222;-63
2024/01/02 00:04:07;;;;;;;4.50;2.70;;;4.70;54.50;;;;;;5027110;28;20262;-63
2024/01/02 00:06:33;;;;;;;2.93;2.40;;;4.70;54.10;;;;;;5033695;28;20218;-62
2024/01/02 00:09:00;;;;;;;2.77;2.57;;;4.70;53.40;;;;;;5030980;28;20317;-63
2024/01/02 00:11:26;;;;;;;3.10;2.20;;;4.60;54.70;;;;;;5019117;28;20235;-63
2024/01/02 00:13:53;;;;;;;3.37;2.60;;;4.50;53.90;;;;;;5032640;28;20637;-63
2024/01/02 00:16:19;;;;;;;3.97;2.63;;;4.50;55.20;;;;;;5027396;28;20226;-63
2024/01/02 00:18:46;;;;;;;2.57;2.37;;;4.50;54.30;;;;;;5032971;28;20245;-63
2024/01/02 00:21:12;;;;;;;3.17;2.50;;;4.50;54.30;;;;;;5031037;28;20704;-63
2024/01/02 00:23:39;;;;;;;4.90;2.97;;;4.50;54.30;;;;;;5034344;28;20218;-63
2024/01/02 00:26:05;;;;;;;3.90;2.50;;;4.50;54.00;;;;;;5034412;28;20276;-63
2024/01/02 00:28:32;;;;;;;2.57;2.30;;;4.50;53.90;;;;;;5022044;28;20255;-63
2024/01/02 00:30:58;;;;;;;4.17;2.30;;;4.40;53.80;;;;;;5027944;28;20237;-63
2024/01/02 00:33:25;;;;;;;2.60;2.40;;;4.50;54.30;;;;;;5027092;28;20251;-62
2024/01/02 00:35:51;;;;;;;3.33;2.30;;;4.40;54.20;;;;;;5032699;28;20709;-63
2024/01/02 00:38:19;;;;;;;5.33;2.43;;;4.40;53.40;;;;;;5033958;28;20211;-63
2024/01/02 00:40:46;;;;;;;2.50;2.30;;;4.40;52.90;;;;;;5034320;28;20213;-63
2024/01/02 00:43:12;;;;;;;2.73;2.20;;;4.40;53.80;;;;;;5030367;28;20677;-63
2024/01/02 00:45:39;;;;;;;3.50;2.23;;;4.40;52.60;;;;;;5034298;28;20272;-63
2024/01/02 00:48:05;;;;;;;2.87;2.33;;;4.40;53.50;;;;;;5031560;28;20238;-63
2024/01/02 00:50:32;;;;;;;2.30;2.10;;;4.40;53.50;;;;;;5026976;28;20673;-63
2024/01/02 00:52:58;;;;;;;4.17;2.57;;;4.40;54.20;;;;;;5033676;28;20629;-63
2024/01/02 00:55:25;;;;;;;2.20;2.10;;;4.40;53.10;;;;;;5033373;28;20269;-63
2024/01/02 00:57:51;;;;;;;2.43;2.23;;;4.30;53.00;;;;;;5033403;28;20217;-63
2024/01/02 01:00:18;;;;;;;2.60;2.43;;;4.30;52.00;;;;;;5032841;28;20217;-63
2024/01/02 01:02:44;;;;;;;2.33;2.17;;;4.30;52.40;;;;;;5033007;28;20234;-63
2024/01/02 01:05:11;;;;;;;2.47;2.27;;;4.40;52.20;;;;;;5025845;28;20885;-63
2024/01/02 01:07:37;;;;;;;2.57;2.37;;;4.30;52.90;;;;;;5022179;28;20202;-63
2024/01/02 01:10:04;;;;;;;4.93;2.37;;;4.30;52.60;;;;;;5029940;28;20210;-61
2024/01/02 01:12:30;;;;;;;1.97;1.87;;;4.30;52.60;;;;;;5032695;28;20210;-62
2024/01/02 01:14:57;;;;;;;3.37;2.30;;;4.30;52.90;;;;;;5031679;28;20390;-63
2024/01/02 01:17:23;;;;;;;2.50;2.30;;;4.40;52.80;;;;;;5031912;28;20234;-62
2024/01/02 01:19:50;;;;;;;2.37;2.17;;;4.40;51.50;;;;;;5032248;28;20540;-62
2024/01/02 01:22:17;;;;;;;2.53;2.33;;;4.30;51.50;;;;;;5032867;28;20239;-62
2024/01/02 01:24:43;;;;;;;2.63;2.23;;;4.30;51.40;;;;;;5022574;28;20206;-62
2024/01/02 01:27:10;;;;;;;2.23;2.13;;;4.30;52.20;;;;;;5031396;28;20254;-62
2024/01/02 01:29:37;;;;;;;2.27;2.07;;;4.30;51.60;;;;;;5032321;28;20207;-63
2024/01/02 01:32:03;;;;;;;2.27;2.10;;;4.40;52.30;;;;;;5032004;28;20268;-63
2024/01/02 01:34:29;;;;;;;2.30;2.10;;;4.40;52.00;;;;;;5032737;28;20396;-63
2024/01/02 01:36:56;;;;;;;2.67;2.07;;;4.40;50.90;;;;;;5029072;28;20275;-63
2024/01/02 01:39:22;;;;;;;2.60;2.40;;;4.40;50.60;;;;;;5032650;28;20210;-63
2024/01/02 01:41:49;;;;;;;2.30;2.10;;;4.40;52.80;;;;;;5026863;28;20226;-63
2024/01/02 01:44:15;;;;;;;2.20;2.10;;;4.40;52.00;;;;;;5030126;28;20206;-62
2024/01/02 01:46:42;;;;;;;2.40;2.20;;;4.40;51.50;;;;;;5032253;28;20280;-63
2024/01/02 01:49:07;;;;;;;2.83;2.50;;;4.50;50.80;;;;;;5031765;28;20215;-63
2024/01/02 01:51:34;;;;;;;2.30;2.20;;;4.50;51.20;;;;;;5031624;28;20256;-63
2024/01/02 01:54:00;;;;;;;3.73;2.30;;;4.50;50.20;;;;;;5029948;28;20202;-63
2024/01/02 01:56:27;;;;;;;2.30;2.10;;;4.50;51.30;;;;;;5032013;28;20284;-63
2024/01/02 01:58:53;;;;;;;2.57;2.40;;;4.50;51.70;;;;;;5020009;28;20237;-63
2024/01/02 02:01:20;;;;;;;2.03;1.93;;;4.60;50.00;;;;;;5026556;28;20684;-63
2024/01/02 02:03:46;;;;;;;2.97;2.13;;;4.50;49.90;;;;;;5032828;28;20261;-62
2024/01/02 02:06:13;;;;;;;2.80;2.00;;;4.50;50.30;;;;;;5029722;28;20214;-63
2024/01/02 02:08:39;;;;;;;2.13;1.93;;;4.60;50.50;;;;;;5032721;28;20214;-63
2024/01/02 02:11:06;;;;;;;2.10;2.00;;;4.50;49.90;;;;;;5030593;28;20213;-63
2024/01/02 02:13:32;;;;;;;2.37;2.03;;;4.60;50.00;;;;;;5032592;28;20628;-63
2024/01/02 02:15:59;;;;;;;2.20;2.00;;;4.50;49.50;;;;;;5028392;28;20227;-63
2024/01/02 02:18:25;;;;;;;2.43;2.10;;;4.50;49.50;;;;;;5029432;28;20238;-63
2024/01/02 02:20:52;;;;;;;2.23;2.13;;;4.60;50.00;;;;;;5021682;28;20230;-63
2024/01/02 02:23:19;;;;;;;2.30;2.10;;;4.50;49.50;;;;;;5032456;28;20719;-62
2024/01/02 02:25:45;;;;;;;2.33;2.20;;;4.60;49.60;;;;;;5032612;28;20589;-63
2024/01/02 02:28:12;;;;;;;2.27;2.17;;;4.60;49.50;;;;;;5032315;28;20210;-62
2024/01/02 02:30:38;;;;;;;2.63;2.43;;;4.60;50.20;;;;;;5031946;28;20272;-63
2024/01/02 02:33:05;;;;;;;3.23;2.27;;;4.60;50.00;;;;;;5027846;28;20272;-62
2024/01/02 02:35:31;;;;;;;2.60;2.40;;;4.60;49.30;;;;;;5028933;28;20222;-62
2024/01/02 02:37:58;;;;;;;2.60;2.20;;;4.60;51.00;;;;;;5024007;28;20607;-62
2024/01/02 02:40:24;;;;;;;2.17;2.07;;;4.50;49.60;;;;;;5031806;28;20242;-63
2024/01/02 02:42:51;;;;;;;2.20;2.10;;;4.50;49.90;;;;;;5031936;28;20277;-62
2024/01/02 02:45:17;;;;;;;3.33;2.30;;;4.50;49.50;;;;;;5031683;28;20230;-63
2024/01/02 02:47:44;;;;;;;2.40;2.20;;;4.40;49.80;;;;;;5031944;28;20202;-63
2024/01/02 02:50:11;;;;;;;2.20;2.10;;;4.50;49.40;;;;;;5028067;28;20242;-63
2024/01/02 02:52:37;;;;;;;3.33;2.17;;;4.50;49.90;;;;;;5023223;28;20198;-63
2024/01/02 02:55:04;;;;;;;2.43;2.20;;;4.40;49.70;;;;;;5026964;28;20276;-63
2024/01/02 02:57:30;;;;;;;2.20;2.10;;;4.50;49.90;;;;;;5030370;28;20257;-63
2024/01/02 02:59:57;;;;;;;2.10;2.00;;;4.50;49.40;;;;;;5030016;28;20234;-63
2024/01/02 03:02:23;;;;;;;2.47;2.07;;;4.60;49.00;;;;;;5029533;28;20290;-62
2024/01/02 03:04:50;;;;;;;2.50;2.30;;;4.70;50.10;;;;;;5035535;28;20704;-62
2024/01/02 03:07:16;;;;;;;2.53;2.17;;;4.60;48.10;;;;;;5031332;28;20206;-62
2024/01/02 03:09:44;;;;;;;2.83;2.27;;;4.60;48.70;;;;;;5027316;28;20234;-63
2024/01/02 03:12:10;;;;;;;2.17;2.00;;;4.60;48.40;;;;;;5014368;28;24947;-63
2024/01/02 03:14:37;;;;;;;2.23;2.07;;;4.60;48.60;;;;;;5035265;28;20206;-63
2024/01/02 03:17:04;;;;;;;2.10;2.00;;;4.60;48.50;;;;;;5033485;28;20226;-63
2024/01/02 03:19:30;;;;;;;2.40;2.20;;;4.50;47.90;;;;;;5030008;28;20209;-63
2024/01/02 03:21:57;;;;;;;2.10;1.90;;;4.50;48.10;;;;;;5034687;28;20776;-63
2024/01/02 03:24:23;;;;;;;2.13;2.00;;;4.50;48.20;;;;;;5030530;28;20214;-63
2024/01/02 03:26:50;;;;;;;2.50;2.40;;;4.40;48.10;;;;;;5033236;28;20232;-62
2024/01/02 03:29:16;;;;;;;2.00;1.80;;;4.40;48.30;;;;;;5028897;28;20199;-63
2024/01/02 03:31:43;;;;;;;2.20;2.00;;;4.40;47.50;;;;;;5028734;28;20272;-63
2024/01/02 03:34:09;;;;;;;2.30;2.10;;;4.40;49.70;;;;;;5035089;28;20206;-63
2024/01/02 03:36:36;;;;;;;2.33;2.13;;;4.40;48.00;;;;;;5031493;28;20644;-63
2024/01/02 03:39:02;;;;;;;2.23;2.10;;;4.40;46.60;;;;;;5026495;28;20240;-62
2024/01/02 03:41:29;;;;;;;2.43;1.83;;;4.50;47.70;;;;;;5032641;28;20221;-63
2024/01/02 03:43:55;;;;;;;2.43;2.13;;;4.50;46.60;;;;;;5033305;28;20639;-63
2024/01/02 03:46:22;;;;;;;2.00;1.90;;;4.40;48.50;;;;;;5035111;28;20257;-63
2024/01/02 03:48:48;;;;;;;2.10;2.00;;;4.50;46.50;;;;;;5033023;28;20241;-63
2024/01/02 03:51:15;;;;;;;2.57;2.07;;;4.50;47.40;;;;;;5034561;28;20256;-63
2024/01/02 03:53:41;;;;;;;2.20;2.00;;;4.50;47.10;;;;;;5030696;28;20244;-62
2024/01/02 03:56:08;;;;;;;2.30;2.20;;;4.50;46.40;;;;;;5018735;28;20756;-63
2024/01/02 03:58:36;;;;;;;1.93;1.70;;;4.60;47.20;;;;;;5015225;28;20255;-62
2024/01/02 04:01:03;;;;;;;2.13;1.90;;;4.60;45.70;;;;;;5019456;28;20199;-63
2024/01/02 04:03:29;;;;;;;1.90;1.80;;;4.60;46.30;;;;;;5023779;28;20288;-63
2024/01/02 04:05:56;;;;;;;2.10;2.00;;;4.50;46.40;;;;;;5019103;28;20226;-62
2024/01/02 04:08:22;;;;;;;2.23;2.03;;;4.50;45.50;;;;;;5026410;28;20289;-63
2024/01/02 04:10:49;;;;;;;2.03;1.93;;;4.60;45.50;;;;;;5017679;28;20226;-63
2024/01/02 04:13:15;;;;;;;2.13;2.03;;;4.60;45.50;;;;;;5031686;28;20202;-63
2024/01/02 04:15:41;;;;;;;1.80;1.70;;;4.60;46.50;;;;;;5019981;28;20231;-62
2024/01/02 04:18:08;;;;;;;2.17;2.00;;;4.50;46.50;;;;;;5030640;28;20688;-62
2024/01/02 04:20:34;;;;;;;2.00;1.90;;;4.60;46.40;;;;;;5028306;28;20198;-62
2024/01/02 04:23:01;;;;;;;2.03;1.93;;;4.50;46.90;;;;;;5031985;28;20211;-61
2024/01/02 04:25:27;;;;;;;2.53;2.30;;;4.50;45.70;;;;;;5026569;28;20606;-62
2024/01/02 04:27:54;;;;;;;2.63;2.00;;;4.50;48.00;;;;;;5033469;28;20199;-62
2024/01/02 04:30:20;;;;;;;2.03;1.83;;;4.50;45.50;;;;;;5026027;28;20644;-62
2024/01/02 04:32:47;;;;;;;2.53;2.33;;;4.60;46.90;;;;;;5028476;28;20268;-62
2024/01/02 04:35:13;;;;;;;2.20;2.10;;;4.60;46.70;;;;;;5033804;28;20577;-61
2024/01/02 04:37:40;;;;;;;2.30;2.10;;;4.60;46.90;;;;;;5031542;28;20249;-62
2024/01/02 04:40:06;;;;;;;2.07;1.97;;;4.60;45.50;;;;;;5025117;28;20226;-62
2024/01/02 04:42:35;;;;;;;2.10;2.00;;;4.70;46.30;;;;;;5033873;28;20210;-62
2024/01/02 04:45:02;;;;;;;1.83;1.70;;;4.70;45.70;;;;;;5029940;28;20237;-62
2024/01/02 04:47:28;;;;;;;2.13;1.90;;;4.60;47.00;;;;;;5021268;28;20665;-62
2024/01/02 04:49:55;;;;;;;2.60;2.17;;;4.60;46.60;;;;;;5031696;28;20568;-62
2024/01/02 04:52:21;;;;;;;2.13;2.03;;;4.60;45.50;;;;;;5032470;28;20249;-62
2024/01/02 04:54:48;;;;;;;2.10;2.00;;;4.50;45.50;;;;;;5028783;28;20649;-62
2024/01/02 04:57:15;;;;;;;1.90;1.80;;;4.60;44.80;;;;;;5032939;28;20232;-62
2024/01/02 04:59:42;;;;;;;2.00;1.90;;;4.60;45.50;;;;;;5026709;28;20208;-62
2024/01/02 05:02:08;;;;;;;2.17;1.97;;;4.50;44.80;;;;;;5026697;28;20647;-62
2024/01/02 05:04:35;;;;;;;2.00;1.90;;;4.50;43.90;;;;;;5032074;28;20206;-62
2024/01/02 05:07:01;;;;;;;1.97;1.87;;;4.50;44.40;;;;;;5022441;28;20261;-62
2024/01/02 05:09:28;;;;;;;2.10;2.00;;;4.60;44.90;;;;;;5029162;28;20831;-62
2024/01/02 05:11:54;;;;;;;1.90;1.80;;;4.60;43.80;;;;;;5030406;28;20206;-62
2024/01/02 05:14:21;;;;;;;1.90;1.80;;;4.70;44.70;;;;;;5026872;28;20207;-62
2024/01/02 05:16:47;;;;;;;2.20;2.00;;;4.80;44.90;;;;;;5027303;28;20257;-62
2024/01/02 05:19:14;;;;;;;2.10;1.90;;;4.80;44.40;;;;;;5026972;28;20209;-62
2024/01/02 05:21:40;;;;;;;1.90;1.80;;;4.80;42.80;;;;;;5031142;28;20241;-62
2024/01/02 05:24:07;;;;;;;2.00;1.90;;;4.80;43.10;;;;;;5028331;28;20284;-62
2024/01/02 05:26:33;;;;;;;2.20;2.10;;;4.70;42.70;;;;;;5033088;28;20319;-62
2024/01/02 05:29:00;;;;;;;2.00;1.90;;;4.70;42.30;;;;;;5023303;28;20230;-62
2024/01/02 05:31:26;;;;;;;1.87;1.77;;;4.80;42.80;;;;;;5032085;28;20233;-62
2024/01/02 05:33:53;;;;;;;2.10;2.00;;;4.80;43.30;;;;;;5027524;28;20222;-62
2024/01/02 05:36:19;;;;;;;2.00;1.90;;;4.80;43.10;;;;;;5032333;28;20261;-62
2024/01/02 05:38:46;;;;;;;2.10;1.90;;;4.90;42.80;;;;;;5027388;28;20258;-67
2024/01/02 05:41:12;;;;;;;2.50;2.10;;;5.00;42.30;;;;;;5025968;28;20245;-62
2024/01/02 05:43:39;;;;;;;2.20;2.10;;;5.10;42.00;;;;;;5032632;28;20214;-62
2024/01/02 05:46:05;;;;;;;1.73;1.67;;;5.20;41.90;;;;;;5032094;28;20292;-61
2024/01/02 05:48:32;;;;;;;1.80;1.70;;;5.30;41.30;;;;;;5015467;28;20231;-62
2024/01/02 05:50:58;;;;;;;1.90;1.80;;;5.50;41.80;;;;;;5031703;28;20674;-62
2024/01/02 05:53:25;;;;;;;2.00;1.90;;;5.60;39.80;;;;;;5028165;28;20249;-62
2024/01/02 05:55:51;;;;;;;1.83;1.73;;;5.70;40.00;;;;;;5024629;28;20266;-62
2024/01/02 05:58:18;;;;;;;2.27;2.00;;;5.80;38.50;;;;;;5030319;28;20257;-62
2024/01/02 06:00:44;;;;;;;1.70;1.60;;;5.90;39.60;;;;;;5027102;28;20211;-62
2024/01/02 06:03:11;;;;;;;1.97;1.87;;;5.90;38.90;;;;;;5029802;28;22374;-62
2024/01/02 06:05:37;;;;;;;1.80;1.70;;;5.90;39.00;;;;;;5018326;28;20258;-62
2024/01/02 06:08:04;;;;;;;1.80;1.70;;;6.00;40.10;;;;;;5030139;28;20198;-62
2024/01/02 06:10:30;;;;;;;2.13;1.60;;;6.00;38.70;;;;;;5027911;28;20238;-62
2024/01/02 06:12:57;;;;;;;1.73;1.63;;;6.00;42.20;;;;;;5028954;28;20261;-62
2024/01/02 06:15:23;;;;;;;1.67;1.60;;;6.10;39.50;;;;;;5025068;28;20400;-62
2024/01/02 06:17:50;;;;;;;1.53;1.43;;;6.10;38.40;;;;;;5020793;28;20228;-62
2024/01/02 06:20:16;;;;;;;1.53;1.43;;;6.40;37.90;;;;;;5024570;28;20234;-62
2024/01/02 06:22:43;;;;;;;1.83;1.73;;;6.50;38.00;;;;;;5027830;28;20210;-62
2024/01/02 06:25:09;;;;;;;1.33;1.33;;;6.50;40.10;;;;;;5026169;28;20349;-62
2024/01/02 06:27:36;;;;;;;1.67;1.57;;;6.60;41.90;;;;;;5027006;28;20206;-62
2024/01/02 06:30:02;;;;;;;1.70;1.60;;;6.70;38.20;;;;;;5021419;28;20242;-62
2024/01/02 06:32:30;;;;;;;1.63;1.53;;;6.70;37.60;;;;;;5025259;28;20218;-62
2024/01/02 06:34:57;;;;;;;1.50;1.40;;;6.70;38.10;;;;;;5030020;28;20315;-62
2024/01/02 06:37:23;;;;;;;1.60;1.50;;;6.80;39.10;;;;;;5027234;28;21504;-62
2024/01/02 06:39:50;;;;;;;1.50;1.50;;;6.70;40.50;;;;;;5030058;28;20238;-62
2024/01/02 06:42:16;;;;;;;1.50;1.40;;;6.80;40.60;;;;;;5035509;28;20239;-62
2024/01/02 06:44:43;;;;;;;1.50;1.50;;;6.90;41.00;;;;;;5035200;28;20265;-62
2024/01/02 06:47:10;;;;;;;1.57;1.57;;;6.90;42.60;;;;;;5028726;28;20220;-62
2024/01/02 06:49:36;;;;;;;1.60;1.50;;;6.90;42.70;;;;;;5031021;28;20204;-62
2024/01/02 06:52:03;;;;;;;1.50;1.40;;;6.90;39.40;;;;;;5035535;28;20243;-62
2024/01/02 06:54:29;;;;;;;1.93;1.83;;;6.90;41.50;;;;;;5027949;28;20720;-62
2024/01/02 06:56:56;;;;;;;1.20;1.20;;;6.80;40.20;;;;;;5035104;28;20282;-62
2024/01/02 06:59:23;;;;;;;1.60;1.60;;;6.80;41.60;;;;;;5034992;28;20224;-62
2024/01/02 07:01:49;;;;;;;1.40;1.40;;;6.80;39.60;;;;;;5030733;28;20240;-62
2024/01/02 07:04:16;;;;;;;1.90;1.80;;;6.80;38.20;;;;;;5034006;28;20856;-62
2024/01/02 07:06:42;;;;;;;1.60;1.50;;;6.70;38.30;;;;;;5035559;28;20262;-62
2024/01/02 07:09:09;;;;;;;1.90;1.60;;;6.70;39.90;;;;;;5025516;28;20266;-62
2024/01/02 07:11:35;;;;;;;1.80;1.70;;;6.60;39.30;;;;;;5025626;28;20205;-62
2024/01/02 07:14:02;;;;;;;1.80;1.70;;;6.60;38.70;;;;;;5035338;28;20230;-62
2024/01/02 07:16:28;;;;;;;2.00;1.70;;;6.50;37.80;;;;;;5025650;28;20288;-62
2024/01/02 07:18:54;;;;;;;2.03;1.93;;;6.50;40.30;;;;;;5028781;28;20232;-62
2024/01/02 07:21:21;;;;;;;1.90;1.80;;;6.50;40.60;;;;;;5030611;28;20235;-62
2024/01/02 07:23:47;;;;;;;3.10;2.10;;;6.50;38.70;;;;;;5023913;28;20256;-62
2024/01/02 07:26:14;;;;;;;1.70;1.60;;;6.30;39.40;;;;;;5026004;28;20651;-62
2024/01/02 07:28:41;;;;;;;1.80;1.70;;;6.00;39.20;;;;;;5016556;28;20285;-62
2024/01/02 07:31:09;;;;;;;1.70;1.60;;;5.80;38.60;;;;;;5018226;28;20216;-62
2024/01/02 07:33:35;;;;;;;2.00;1.90;;;5.80;38.80;;;;;;5021211;28;20215;-62
2024/01/02 07:36:02;;;;;;;2.07;1.97;;;5.80;39.40;;;;;;5031522;28;20303;-62
2024/01/02 07:38:30;;;;;;;2.37;2.20;;;5.70;40.80;;;;;;5014054;28;20240;-62
2024/01/02 07:40:55;;;;;;;2.27;2.17;;;5.60;42.50;;;;;;5011969;28;20593;-62
2024/01/02 07:43:23;;;;;;;2.00;1.80;;;5.60;40.80;;;;;;5019827;28;20211;-62
2024/01/02 07:45:50;;;;;;;3.10;1.80;;;5.60;41.50;;;;;;5022524;28;20279;-62
2024/01/02 07:48:17;;;;;;;1.80;1.70;;;5.60;40.20;;;;;;5015234;28;20204;-62
2024/01/02 07:50:43;;;;;;;1.50;1.40;;;5.60;40.50;;;;;;5026902;28;20585;-62
2024/01/02 07:53:10;;;;;;;1.80;1.70;;;5.60;39.90;;;;;;5024743;28;20233;-62
2024/01/02 07:55:36;;;;;;;1.83;1.73;;;5.60;41.00;;;;;;5025869;28;20250;-62
2024/01/02 07:58:03;;;;;;;1.93;1.83;;;5.70;40.40;;;;;;5031599;28;20272;-62
2024/01/02 08:00:30;;;;;;;2.53;1.70;;;5.80;41.80;;;;;;5024145;28;20211;-62
2024/01/02 08:02:57;;;;;;;1.63;1.53;;;5.90;41.30;;;;;;5022813;28;20201;-63
2024/01/02 08:05:23;;;;;;;2.07;1.87;;;5.90;38.60;;;;;;5016888;28;20249;-63
2024/01/02 08:07:50;;;;;;;4.67;2.10;;;5.90;39.10;;;;;;5014189;28;20293;-62
2024/01/02 08:10:16;;;;;;;1.90;1.80;;;6.00;38.80;;;;;;5030021;28;20235;-62
2024/01/02 08:12:43;;;;;;;2.00;1.83;;;6.00;37.60;;;;;;5024289;28;20258;-62
2024/01/02 08:15:09;;;;;;;2.73;1.80;;;6.00;37.60;;;;;;5015403;28;20230;-62
2024/01/02 08:17:36;;;;;;;1.90;1.80;;;6.00;38.40;;;;;;5032315;28;20211;-62
2024/01/02 08:20:03;;;;;;;1.80;1.70;;;6.00;38.20;;;;;;5023040;28;20240;-60
2024/01/02 08:22:29;;;;;;;1.90;1.80;;;6.10;39.40;;;;;;5022539;28;20624;-59
2024/01/02 08:24:56;;;;;;;2.00;1.90;;;6.40;37.90;;;;;;5027879;28;20267;-61
2024/01/02 08:27:25;;;;;;;1.80;1.70;;;6.40;37.60;;;;;;5024208;28;20698;-61
2024/01/02 08:29:51;;;;;;;2.20;1.83;;;6.30;37.80;;;;;;5022311;28;20211;-64
2024/01/02 08:32:20;;;;;;;2.07;1.90;;;6.10;37.70;;;;;;5019432;28;20341;-61
2024/01/02 08:34:46;;;;;;;2.00;1.90;;;6.10;38.70;;;;;;5016908;28;20207;-62
2024/01/02 08:37:13;;;;;;;1.80;1.70;;;6.10;39.00;;;;;;5020313;28;20686;-62
2024/01/02 08:39:39;;;;;;;3.03;2.10;;;6.00;39.50;;;;;;5016465;28;20277;-62
2024/01/02 08:42:06;;;;;;;1.90;1.80;;;6.00;39.00;;;;;;5026942;28;20223;-61
2024/01/02 08:44:33;;;;;;;2.00;1.90;;;6.00;39.00;;;;;;5024830;28;20637;-64
2024/01/02 08:46:59;;;;;;;2.03;1.70;;;6.00;42.20;;;;;;5022340;28;20237;-61
2024/01/02 08:49:26;;;;;;;2.10;1.97;;;6.00;39.90;;;;;;5032675;28;20263;-62
2024/01/02 08:51:52;;;;;;;2.13;1.70;;;6.00;39.10;;;;;;5023028;28;20681;-62
2024/01/02 08:54:19;;;;;;;1.80;1.70;;;6.00;41.80;;;;;;5031656;28;20264;-64
2024/01/02 08:56:45;;;;;;;1.80;1.70;;;6.10;41.00;;;;;;5010222;28;20315;-65
2024/01/02 08:59:12;;;;;;;1.80;1.70;;;6.10;38.70;;;;;;5028839;28;20332;-62
2024/01/02 09:01:38;;;;;;;2.00;1.90;;;6.20;39.80;;;;;;5018655;28;20253;-64
2024/01/02 09:04:05;;;;;;;1.80;1.70;;;6.20;39.30;;;;;;5039006;28;20253;-61
2024/01/02 09:06:31;;;;;;;1.80;1.70;;;6.20;40.20;;;;;;5023630;28;20302;-63
2024/01/02 09:08:58;;;;;;;2.00;1.90;;;6.30;39.50;;;;;;5012081;28;20254;-61
2024/01/02 09:11:25;;;;;;;2.03;1.93;;;6.30;40.90;;;;;;5019528;28;20247;-63
2024/01/02 09:13:51;;;;;;;2.60;1.90;;;6.40;42.00;;;;;;5000574;28;20215;-61
2024/01/02 09:16:18;;;;;;;2.00;1.90;;;6.50;42.30;;;;;;5005460;28;20228;-63
2024/01/02 09:18:44;;;;;;;2.00;1.90;;;6.50;40.90;;;;;;5027629;28;20227;-62
2024/01/02 09:21:11;;;;;;;2.23;1.93;;;6.50;41.00;;;;;;5016829;28;20200;-58
2024/01/02 09:23:37;;;;;;;1.90;1.80;;;6.50;42.80;;;;;;5028937;28;20246;-61
2024/01/02 09:26:04;;;;;;;1.90;1.80;;;6.40;42.00;;;;;;5023912;28;20236;-66
2024/01/02 09:28:30;;;;;;;1.87;1.73;;;6.50;42.00;;;;;;5020282;28;20246;-62
2024/01/02 09:30:57;;;;;;;1.90;1.80;;;6.40;41.80;;;;;;5023086;28;20232;-64
2024/01/02 09:33:26;;;;;;;1.87;1.77;;;6.50;42.00;;;;;;5030151;28;20255;-65
2024/01/02 09:35:52;;;;;;;1.60;1.50;;;6.50;41.30;;;;;;5029774;28;20234;-65
2024/01/02 09:38:19;;;;;;;2.10;1.90;;;6.60;43.30;;;;;;5019071;28;20270;-62
2024/01/02 09:40:46;;;;;;;1.90;1.70;;;6.60;43.90;;;;;;5029572;28;20207;-66
2024/01/02 09:43:13;;;;;;;1.90;1.80;;;6.60;42.70;;;;;;5023824;28;20208;-64
2024/01/02 09:45:41;;;;;;;1.70;1.60;;;6.70;44.70;;;;;;5017996;28;20710;-66
2024/01/02 09:48:08;;;;;;;1.70;1.60;;;6.80;43.80;;;;;;5019041;28;20235;-64
2024/01/02 09:50:35;;;;;;;1.67;1.57;;;6.80;44.50;;;;;;5030084;28;20648;-65
2024/01/02 09:53:02;;;;;;;2.07;1.67;;;6.90;45.30;;;;;;5021058;28;20209;-61
2024/01/02 09:55:28;;;;;;;1.80;1.70;;;7.00;44.40;;;;;;5018764;28;20681;-66
2024/01/02 09:57:55;;;;;;;1.60;1.50;;;7.10;45.60;;;;;;5030709;28;20235;-62
2024/01/02 10:00:21;;;;;;;1.90;1.70;;;7.20;45.80;;;;;;5020645;28;20255;-62
2024/01/02 10:02:47;;;;;;;1.47;1.43;;;7.40;46.50;;;;;;5021861;28;20206;-65
2024/01/02 10:05:13;;;;;;;1.47;1.40;;;7.50;46.10;;;;;;5024312;28;20239;-62
2024/01/02 10:07:40;;;;;;;1.80;1.70;;;7.70;47.00;;;;;;5018990;28;20759;-63
2024/01/02 10:10:07;;;;;;;1.60;1.50;;;7.80;47.10;;;;;;5025739;28;20202;-63
2024/01/02 10:12:34;;;;;;;1.50;1.40;;;8.00;47.30;;;;;;5030132;28;20218;-63
2024/01/02 10:15:00;;;;;;;1.50;1.40;;;8.10;47.20;;;;;;5022050;28;20265;-63
2024/01/02 10:17:27;;;;;;;1.60;1.50;;;8.30;47.90;;;;;;5026374;28;20217;-61
2024/01/02 10:19:53;;;;;;;1.40;1.40;;;8.40;48.40;;;;;;5028360;28;20581;-63
2024/01/02 10:22:20;;;;;;;1.33;1.33;;;8.50;47.20;;;;;;5017569;28;20859;-63
2024/01/02 10:24:46;;;;;;;2.97;1.30;;;8.60;46.90;;;;;;5024500;28;20255;-63
2024/01/02 10:27:13;;;;;;;1.50;1.50;;;8.70;47.20;;;;;;5026104;28;20203;-63
2024/01/02 10:29:40;;;;;;;1.20;1.20;;;8.70;47.40;;;;;;5022041;28;20361;-63
2024/01/02 10:32:06;;;;;;;1.37;1.30;;;8.80;47.40;;;;;;5025889;28;20221;-63
2024/01/02 10:34:33;;;;;;;1.40;1.30;;;8.80;47.40;;;;;;5026030;28;20206;-63
2024/01/02 10:37:00;;;;;;;1.30;1.30;;;8.80;48.80;;;;;;5033331;28;20279;-63
2024/01/02 10:39:27;;;;;;;1.20;1.20;;;8.80;47.60;;;;;;5033130;28;20265;-63
2024/01/02 10:41:54;;;;;;;1.37;1.37;;;8.90;47.70;;;;;;5027138;28;20580;-63
2024/01/02 10:44:20;;;;;;;1.20;1.20;;;8.90;48.50;;;;;;5030566;28;20289;-63
2024/01/02 10:46:48;;;;;;;1.33;1.20;;;8.90;49.00;;;;;;5027055;28;20312;-62
2024/01/02 10:49:15;;;;;;;1.23;1.23;;;8.90;49.10;;;;;;5029806;28;20202;-63
2024/01/02 10:51:41;;;;;;;1.40;1.40;;;9.00;48.80;;;;;;5027898;28;20217;-63
2024/01/02 10:54:08;;;;;;;1.20;1.20;;;9.00;48.80;;;;;;5027583;28;20209;-63
2024/01/02 10:56:34;;;;;;;1.20;1.20;;;9.10;49.20;;;;;;5032202;28;20775;-63
2024/01/02 10:59:01;;;;;;;1.20;1.20;;;9.10;49.20;;;;;;5031619;28;20648;-63
2024/01/02 11:01:27;;;;;;;1.27;1.27;;;9.10;49.30;;;;;;5026995;28;20288;-63
2024/01/02 11:03:54;;;;;;;1.27;1.27;;;9.20;49.30;;;;;;5023720;28;20709;-63
2024/01/02 11:06:21;;;;;;;1.53;1.40;;;9.20;50.00;;;;;;5029623;28;20257;-63
2024/01/02 11:08:48;;;;;;;1.10;1.10;;;9.20;49.80;;;;;;5035350;28;20715;-63
2024/01/02 11:11:15;;;;;;;1.20;1.20;;;9.20;49.80;;;;;;5023116;28;20208;-63
2024/01/02 11:13:42;;;;;;;1.33;1.20;;;9.30;50.00;;;;;;5030752;28;20206;-63
2024/01/02 11:16:09;;;;;;;1.20;1.20;;;9.30;50.70;;;;;;5031109;28;20237;-63
2024/01/02 11:18:36;;;;;;;1.30;1.30;;;9.30;50.80;;;;;;5033284;28;20594;-63
2024/01/02 11:21:03;;;;;;;1.20;1.20;;;9.30;50.50;;;;;;5022287;28;20203;-63
2024/01/02 11:23:30;;;;;;;1.20;1.20;;;9.40;50.60;;;;;;5031430;28;20669;-61
2024/01/02 11:25:56;;;;;;;1.37;1.27;;;9.30;51.50;;;;;;5032813;28;20307;-61
2024/01/02 11:28:23;;;;;;;1.30;1.30;;;9.30;51.50;;;;;;5031385;28;20263;-60
2024/01/02 11:30:49;;;;;;;1.33;1.27;;;9.30;51.50;;;;;;5038886;28;20235;-61
2024/01/02 11:33:16;;;;;;;1.20;1.20;;;9.30;51.70;;;;;;5035220;28;20229;-61
2024/01/02 11:35:42;;;;;;;1.10;1.10;;;9.40;51.50;;;;;;5030879;28;20259;-61
2024/01/02 11:38:08;;;;;;;1.37;1.27;;;9.50;51.80;;;;;;5028017;28;20207;-61
2024/01/02 11:40:34;;;;;;;1.20;1.20;;;9.50;51.80;;;;;;5029589;28;20552;-60
2024/01/02 11:43:01;;;;;;;1.20;1.20;;;9.60;51.50;;;;;;5027228;28;20233;-62
2024/01/02 11:45:27;;;;;;;1.40;1.40;;;9.60;51.60;;;;;;5027013;28;20227;-60
2024/01/02 11:47:54;;;;;;;1.40;1.30;;;9.60;51.30;;;;;;5010190;28;20262;-61
2024/01/02 11:50:20;;;;;;;1.10;1.10;;;9.60;51.60;;;;;;5003766;28;20691;-61
2024/01/02 11:52:47;;;;;;;1.27;1.27;;;9.70;50.60;;;;;;5007416;28;20236;-61
2024/01/02 11:55:13;;;;;;;1.20;1.20;;;9.80;50.20;;;;;;5007225;28;20753;-63
2024/01/02 11:57:40;;;;;;;1.20;1.10;;;9.90;50.50;;;;;;5015503;28;20278;-62
2024/01/02 12:00:07;;;;;;;1.40;1.40;;;9.90;49.90;;;;;;5014014;28;20275;-62
2024/01/02 12:02:35;;;;;;;1.37;1.27;;;9.90;49.70;;;;;;5014852;28;20573;-62
2024/01/02 12:05:01;;;;;;;1.50;1.40;;;10.00;48.40;;;;;;5015115;28;20231;-62
2024/01/02 12:07:28;;;;;;;1.20;1.20;;;9.90;49.10;;;;;;5008242;28;20242;-62
2024/01/02 12:09:54;;;;;;;1.10;1.10;;;10.00;48.70;;;;;;5012498;28;20208;-62
2024/01/02 12:12:20;;;;;;;1.10;1.10;;;10.10;48.40;;;;;;5006072;28;20209;-62
2024/01/02 12:14:46;;;;;;;1.10;1.10;;;10.10;47.10;;;;;;5008541;28;20235;-62
2024/01/02 12:17:13;;;;;;;1.20;1.20;;;10.20;47.70;;;;;;5007135;28;20245;-62
2024/01/02 12:19:39;;;;;;;1.30;1.30;;;10.20;47.50;;;;;;5001272;28;20680;-61
2024/01/02 12:22:07;;;;;;;1.50;1.50;;;10.20;47.30;;;;;;5007371;28;20211;-62
2024/01/02 12:24:34;;;;;;;1.40;1.40;;;10.20;47.50;;;;;;5013851;28;20223;-62
2024/01/02 12:27:00;;;;;;;1.10;1.10;;;10.20;47.00;;;;;;5010825;28;20735;-62
2024/01/02 12:29:26;;;;;;;1.40;1.40;;;10.20;47.20;;;;;;5011158;28;20240;-61
2024/01/02 12:31:53;;;;;;;1.10;1.10;;;10.30;46.50;;;;;;4996318;28;20255;-62
2024/01/02 12:34:19;;;;;;;1.20;1.20;;;10.40;46.40;;;;;;5004271;28;20676;-63
2024/01/02 12:36:46;;;;;;;1.20;1.20;;;10.40;47.30;;;;;;5007448;28;20224;-62
2024/01/02 12:39:13;;;;;;;1.13;1.13;;;10.50;46.30;;;;;;5006447;28;20734;-63
2024/01/02 12:41:40;;;;;;;1.10;1.10;;;10.50;47.40;;;;;;5001229;28;20260;-63
2024/01/02 12:44:06;;;;;;;1.20;1.20;;;10.50;46.40;;;;;;5005980;28;20252;-62
2024/01/02 12:46:33;;;;;;;1.07;1.07;;;10.40;46.70;;;;;;5011491;28;20265;-62
2024/01/02 12:48:59;;;;;;;1.10;1.10;;;10.40;47.00;;;;;;5004706;28;20312;-63
2024/01/02 12:51:26;;;;;;;1.10;1.10;;;10.50;47.10;;;;;;5010640;28;20213;-61